Time;durP1;ratioP1;P1;durP2;ratioP2;P2;SDS_P1;SDS_P2;PMS_P1;PMS_P2;Temp;Humidity;BMP_temperature;BMP_pressure;BME280_temperature;BME280_humidity;BME280_pressure;Samples;Min_cycle;Max_cycle;Signal;HPM_P1;HPM_P2
2021/03/05 00:02:23;;;;;;;37.90;19.67;;;;;;;2.21;73.00;98565.56;2227710;79;21301;-82
2021/03/05 00:05:24;;;;;;;35.68;17.80;;;;;;;2.22;73.07;98558.15;2229252;78;21269;-82
2021/03/05 00:08:26;;;;;;;32.67;16.62;;;;;;;2.25;73.00;98561.75;2221782;78;21314;-83
2021/03/05 00:11:27;;;;;;;31.12;16.27;;;;;;;2.25;72.99;98563.05;2201972;78;21313;-82
2021/03/05 00:14:29;;;;;;;32.75;16.27;;;;;;;2.21;72.77;98562.50;2229177;78;21194;-82
2021/03/05 00:17:31;;;;;;;29.15;16.48;;;;;;;2.19;72.88;98558.39;2232409;78;22298;-82
2021/03/05 00:20:32;;;;;;;29.77;15.90;;;;;;;2.21;72.77;98570.25;2215949;78;21706;-82
2021/03/05 00:23:34;;;;;;;25.15;13.68;;;;;;;2.23;72.63;98559.78;2191607;78;21718;-82
2021/03/05 00:26:35;;;;;;;25.60;13.45;;;;;;;2.25;72.53;98568.22;2231623;78;21316;-82
2021/03/05 00:29:40;;;;;;;23.45;13.35;;;;;;;2.22;72.44;98565.42;2191698;78;21180;-83
2021/03/05 00:32:41;;;;;;;25.32;14.15;;;;;;;2.19;72.38;98559.20;2197209;78;21770;-80
2021/03/05 00:35:43;;;;;;;27.13;13.50;;;;;;;2.20;72.59;98563.45;2227017;78;21175;-81
2021/03/05 00:38:45;;;;;;;27.25;15.00;;;;;;;2.18;72.51;98557.58;2231954;78;21268;-81
2021/03/05 00:41:47;;;;;;;26.93;15.23;;;;;;;2.14;72.61;98548.46;2234902;78;21606;-82
2021/03/05 00:44:49;;;;;;;24.85;14.45;;;;;;;2.09;72.61;98548.02;2221941;78;21139;-83
2021/03/05 00:47:50;;;;;;;27.15;15.25;;;;;;;2.05;72.62;98544.08;2192979;79;21116;-82
2021/03/05 00:50:52;;;;;;;23.98;13.80;;;;;;;2.01;72.73;98545.27;2245424;78;21293;-82
2021/03/05 00:53:54;;;;;;;24.30;14.53;;;;;;;1.97;72.75;98542.14;2219143;78;21707;-82
2021/03/05 00:56:56;;;;;;;27.32;14.28;;;;;;;1.94;72.79;98538.53;2241557;78;21333;-82
2021/03/05 00:59:58;;;;;;;23.55;13.95;;;;;;;1.93;73.06;98538.66;2226007;78;21628;-82
2021/03/05 01:02:59;;;;;;;32.13;15.85;;;;;;;1.89;73.17;98538.09;2235814;78;21180;-83
2021/03/05 01:06:01;;;;;;;24.15;14.98;;;;;;;1.87;73.12;98543.86;2226467;79;21756;-82
2021/03/05 01:09:03;;;;;;;30.62;16.80;;;;;;;1.87;73.32;98538.70;2206177;78;21147;-83
2021/03/05 01:12:05;;;;;;;29.95;16.57;;;;;;;1.86;73.40;98540.13;2216115;79;21560;-83
2021/03/05 01:15:06;;;;;;;31.45;16.87;;;;;;;1.83;73.60;98539.91;2241590;78;21140;-83
2021/03/05 01:18:08;;;;;;;27.60;16.30;;;;;;;1.86;73.54;98536.25;2240018;79;21203;-83
2021/03/05 01:21:10;;;;;;;31.00;17.90;;;;;;;1.92;73.53;98539.59;2242540;78;21115;-84
2021/03/05 01:24:12;;;;;;;32.30;18.80;;;;;;;1.96;73.55;98540.98;2214477;79;21305;-85
2021/03/05 01:27:13;;;;;;;29.92;16.77;;;;;;;1.99;73.61;98542.81;2214395;78;21613;-85
2021/03/05 01:30:15;;;;;;;29.15;15.83;;;;;;;1.98;73.66;98539.08;2222308;79;21313;-85
2021/03/05 01:33:17;;;;;;;34.60;19.57;;;;;;;1.93;73.92;98533.02;2216732;78;21321;-85
2021/03/05 01:36:18;;;;;;;32.78;18.32;;;;;;;1.87;73.91;98537.41;2223299;79;21294;-85
2021/03/05 01:39:20;;;;;;;33.35;17.05;;;;;;;1.82;74.17;98526.63;2223082;78;21710;-84
2021/03/05 01:42:22;;;;;;;27.17;15.83;;;;;;;1.80;74.04;98532.88;2233284;78;21599;-85
2021/03/05 01:45:23;;;;;;;37.23;20.05;;;;;;;1.77;74.45;98542.18;2242478;78;21325;-83
2021/03/05 01:48:25;;;;;;;35.85;19.20;;;;;;;1.71;74.44;98538.34;2231489;78;21602;-84
2021/03/05 01:51:26;;;;;;;36.03;18.95;;;;;;;1.70;74.38;98536.23;2199864;78;21230;-84
2021/03/05 01:54:28;;;;;;;37.03;19.77;;;;;;;1.71;74.50;98537.86;2199667;79;21285;-84
2021/03/05 01:57:29;;;;;;;33.90;19.67;;;;;;;1.71;74.57;98532.70;2216053;79;21149;-83
2021/03/05 02:00:31;;;;;;;42.53;20.65;;;;;;;1.78;74.50;98538.65;2217786;78;21191;-82
2021/03/05 02:03:33;;;;;;;33.40;18.10;;;;;;;1.80;74.52;98545.78;2202237;78;21674;-85
2021/03/05 02:06:34;;;;;;;34.95;19.65;;;;;;;1.84;74.44;98552.34;2255265;78;21701;-84
2021/03/05 02:09:36;;;;;;;41.63;22.65;;;;;;;1.85;74.44;98555.27;2228289;78;21136;-83
2021/03/05 02:12:38;;;;;;;33.58;18.40;;;;;;;1.89;74.49;98563.09;2224271;78;21306;-83
2021/03/05 02:15:39;;;;;;;38.58;20.85;;;;;;;1.93;74.43;98564.02;2215472;78;21151;-84
2021/03/05 02:18:41;;;;;;;37.33;20.65;;;;;;;1.99;74.40;98563.48;2226681;78;21710;-84
2021/03/05 02:21:42;;;;;;;34.78;19.77;;;;;;;2.03;74.37;98559.37;2235597;78;21764;-83
2021/03/05 02:24:44;;;;;;;33.28;18.15;;;;;;;2.09;74.40;98554.48;2207984;78;21151;-85
2021/03/05 02:27:46;;;;;;;37.55;19.23;;;;;;;2.10;74.27;98556.59;2207378;78;21243;-85
2021/03/05 02:30:47;;;;;;;44.48;22.85;;;;;;;2.07;74.30;98558.14;2191818;78;21339;-83
2021/03/05 02:33:49;;;;;;;38.58;22.25;;;;;;;2.04;74.36;98559.70;2216297;78;21174;-84
2021/03/05 02:36:51;;;;;;;34.90;19.75;;;;;;;2.09;74.43;98555.77;2226144;78;21144;-85
2021/03/05 02:39:52;;;;;;;35.88;21.02;;;;;;;2.09;74.31;98552.37;2208733;79;21289;-84
2021/03/05 02:42:54;;;;;;;35.60;20.65;;;;;;;2.09;74.35;98556.25;2226474;78;21809;-84
2021/03/05 02:45:55;;;;;;;38.85;21.37;;;;;;;2.10;74.50;98559.98;2206321;78;21404;-83
2021/03/05 02:48:57;;;;;;;43.60;23.95;;;;;;;2.10;74.54;98558.70;2234472;78;21198;-83
2021/03/05 02:51:58;;;;;;;40.05;22.02;;;;;;;2.10;74.66;98559.98;2213611;78;21278;-83
2021/03/05 02:55:00;;;;;;;42.40;23.95;;;;;;;2.15;74.71;98563.48;2199069;78;21155;-83
2021/03/05 02:58:01;;;;;;;41.90;23.90;;;;;;;2.16;74.78;98553.49;2207515;78;21184;-83
2021/03/05 03:01:03;;;;;;;33.08;20.40;;;;;;;2.12;74.95;98554.23;2217462;78;21183;-84
2021/03/05 03:04:05;;;;;;;37.75;20.30;;;;;;;2.08;75.56;98561.89;2228168;78;21155;-83
2021/03/05 03:07:06;;;;;;;40.45;21.33;;;;;;;2.00;75.31;98565.11;2203360;79;21156;-83
2021/03/05 03:10:08;;;;;;;35.13;20.30;;;;;;;1.97;75.56;98569.73;2237966;78;21142;-83
2021/03/05 03:13:09;;;;;;;38.50;21.20;;;;;;;1.92;75.91;98573.16;2212443;78;21167;-84
2021/03/05 03:16:11;;;;;;;38.10;22.35;;;;;;;1.92;76.06;98577.88;2214677;79;21646;-83
2021/03/05 03:19:12;;;;;;;38.80;21.05;;;;;;;1.90;76.13;98572.00;2234555;78;21285;-84
2021/03/05 03:22:14;;;;;;;37.60;20.40;;;;;;;1.93;76.25;98576.92;2245466;79;21269;-84
2021/03/05 03:25:16;;;;;;;39.20;21.57;;;;;;;1.92;76.43;98576.58;2209715;79;21151;-84
2021/03/05 03:28:17;;;;;;;46.50;24.85;;;;;;;1.89;76.55;98574.71;2200338;78;21321;-83
2021/03/05 03:31:19;;;;;;;45.78;24.18;;;;;;;1.89;76.59;98579.88;2200193;78;21175;-84
2021/03/05 03:34:21;;;;;;;40.45;22.58;;;;;;;1.92;76.74;98576.58;2201760;78;21160;-83
2021/03/05 03:37:22;;;;;;;42.60;22.40;;;;;;;1.96;76.87;98571.97;2254818;79;21147;-84
2021/03/05 03:40:24;;;;;;;33.25;19.25;;;;;;;1.97;76.91;98583.93;2209266;78;21140;-84
2021/03/05 03:43:25;;;;;;;38.67;20.45;;;;;;;1.93;77.04;98587.25;2221888;78;21803;-83
2021/03/05 03:46:27;;;;;;;36.83;20.15;;;;;;;1.85;77.28;98583.67;2212342;78;21695;-85
2021/03/05 03:49:28;;;;;;;47.85;23.87;;;;;;;1.79;77.49;98592.73;2218421;78;21288;-84
2021/03/05 03:52:30;;;;;;;43.63;22.65;;;;;;;1.77;77.86;98592.52;2234341;79;21286;-83
2021/03/05 03:55:31;;;;;;;39.95;22.52;;;;;;;1.76;77.75;98587.02;2215988;79;21321;-83
2021/03/05 03:58:33;;;;;;;43.90;23.10;;;;;;;1.75;77.81;98589.25;2234706;79;21320;-83
2021/03/05 04:01:34;;;;;;;39.67;22.58;;;;;;;1.76;78.04;98581.38;2213890;79;21286;-83
2021/03/05 04:04:36;;;;;;;38.15;20.40;;;;;;;1.74;78.01;98583.27;2217165;79;21156;-85
2021/03/05 04:07:37;;;;;;;42.25;24.25;;;;;;;1.68;78.29;98590.23;2211269;79;21309;-84
2021/03/05 04:10:39;;;;;;;49.35;26.15;;;;;;;1.68;78.28;98584.59;2246954;78;21297;-84
2021/03/05 04:13:41;;;;;;;45.43;24.45;;;;;;;1.71;78.33;98587.38;2207939;78;22236;-84
2021/03/05 04:16:42;;;;;;;37.23;21.12;;;;;;;1.73;78.32;98591.13;2225203;78;21217;-84
2021/03/05 04:19:44;;;;;;;50.40;25.05;;;;;;;1.74;78.81;98595.33;2222106;79;21285;-84
2021/03/05 04:22:45;;;;;;;39.38;22.10;;;;;;;1.71;78.81;98594.65;2224266;79;21333;-83
2021/03/05 04:25:47;;;;;;;40.90;21.48;;;;;;;1.68;78.94;98594.91;2222794;79;21307;-83
2021/03/05 04:28:49;;;;;;;53.95;26.40;;;;;;;1.68;79.16;98596.67;2238952;79;21171;-83
2021/03/05 04:31:50;;;;;;;52.55;27.25;;;;;;;1.70;79.03;98601.23;2237880;79;21129;-83
2021/03/05 04:34:52;;;;;;;44.58;25.27;;;;;;;1.73;78.96;98606.13;2240642;79;21698;-83
2021/03/05 04:37:54;;;;;;;47.25;24.57;;;;;;;1.75;79.07;98604.27;2232472;79;21759;-84
2021/03/05 04:40:55;;;;;;;47.30;25.35;;;;;;;1.77;79.12;98609.30;2244003;79;21331;-84
2021/03/05 04:43:58;;;;;;;46.92;26.10;;;;;;;1.75;79.42;98610.72;2225711;78;21197;-84
2021/03/05 04:47:00;;;;;;;36.73;21.70;;;;;;;1.71;80.36;98619.65;2226795;79;21665;-83
2021/03/05 04:50:01;;;;;;;42.33;20.65;;;;;;;1.58;80.67;98623.72;2227912;79;21193;-85
2021/03/05 04:53:03;;;;;;;37.17;18.10;;;;;;;1.43;81.37;98621.89;2219404;79;21326;-84
2021/03/05 04:56:04;;;;;;;19.98;9.53;;;;;;;1.26;80.58;98627.59;2241163;79;21121;-85
2021/03/05 04:59:06;;;;;;;15.43;8.75;;;;;;;1.03;81.25;98632.48;2218358;79;21283;-84
2021/03/05 05:02:08;;;;;;;17.00;9.28;;;;;;;0.79;81.18;98631.34;2249404;79;21156;-85
2021/03/05 05:05:09;;;;;;;18.02;11.35;;;;;;;0.61;82.06;98634.88;2240807;78;21177;-84
2021/03/05 05:08:11;;;;;;;15.13;8.75;;;;;;;0.48;82.06;98636.31;2234549;79;21346;-83
2021/03/05 05:11:13;;;;;;;23.00;11.78;;;;;;;0.38;82.85;98651.30;2234116;79;21150;-85
2021/03/05 05:14:14;;;;;;;15.65;9.78;;;;;;;0.30;82.78;98644.16;2218769;78;21715;-83
2021/03/05 05:17:16;;;;;;;15.70;10.30;;;;;;;0.30;83.13;98645.91;2246663;79;21168;-84
2021/03/05 05:20:17;;;;;;;13.28;9.68;;;;;;;0.26;82.05;98655.14;2237241;78;21198;-84
2021/03/05 05:23:19;;;;;;;11.48;7.25;;;;;;;0.24;82.18;98656.20;2242161;79;21331;-83
2021/03/05 05:26:21;;;;;;;11.90;7.95;;;;;;;0.19;82.72;98661.71;2219732;79;21207;-82
2021/03/05 05:29:23;;;;;;;12.23;8.63;;;;;;;0.13;82.35;98671.64;2246118;79;21173;-83
2021/03/05 05:32:24;;;;;;;10.18;7.15;;;;;;;0.09;82.38;98680.08;2232290;79;21735;-84
2021/03/05 05:35:26;;;;;;;9.48;5.95;;;;;;;0.07;82.85;98682.39;2230718;79;21149;-85
2021/03/05 05:38:27;;;;;;;7.67;5.97;;;;;;;0.01;82.35;98697.02;2209485;79;21196;-84
2021/03/05 05:41:29;;;;;;;7.75;5.35;;;;;;;-0.10;82.19;98694.74;2237502;79;21177;-84
2021/03/05 05:44:30;;;;;;;9.53;5.25;;;;;;;-0.16;82.43;98685.39;2243379;79;21747;-85
2021/03/05 05:47:32;;;;;;;6.90;4.92;;;;;;;-0.21;82.09;98698.58;2241128;79;21287;-87
2021/03/05 05:50:34;;;;;;;7.37;5.62;;;;;;;-0.25;82.66;98697.64;2226237;79;21342;-82
2021/03/05 05:53:35;;;;;;;9.73;6.15;;;;;;;-0.30;82.76;98705.68;2244070;79;21176;-82
2021/03/05 05:56:37;;;;;;;12.60;7.08;;;;;;;-0.35;82.40;98701.34;2236228;79;21172;-81
2021/03/05 05:59:39;;;;;;;12.15;6.85;;;;;;;-0.39;82.66;98702.02;2247181;79;21113;-82
2021/03/05 06:02:42;;;;;;;10.08;6.17;;;;;;;-0.39;83.28;98711.48;2237305;79;21596;-83
2021/03/05 06:05:46;;;;;;;14.35;6.75;;;;;;;-0.40;82.68;98710.67;2244401;79;21283;-83
2021/03/05 06:08:48;;;;;;;8.95;6.37;;;;;;;-0.35;82.66;98720.17;2234358;79;21743;-79
2021/03/05 06:11:50;;;;;;;10.40;7.12;;;;;;;-0.32;82.59;98721.70;2248020;79;21633;-84
2021/03/05 06:14:51;;;;;;;9.08;6.33;;;;;;;-0.31;82.20;98726.73;2197475;80;21334;-83
2021/03/05 06:17:53;;;;;;;11.12;7.12;;;;;;;-0.27;82.17;98723.48;2199717;80;21330;-89
2021/03/05 06:20:55;;;;;;;11.18;7.62;;;;;;;-0.20;82.05;98723.38;2181852;80;21933;-88
2021/03/05 06:23:57;;;;;;;6.83;5.97;;;;;;;-0.13;81.98;98727.62;2192173;80;21295;-87
2021/03/05 06:26:59;;;;;;;8.20;5.92;;;;;;;-0.09;82.47;98740.61;2186930;80;21161;-85
2021/03/05 06:30:00;;;;;;;9.33;5.72;;;;;;;-0.05;82.20;98742.86;2190749;80;21291;-84
2021/03/05 06:33:02;;;;;;;7.03;5.25;;;;;;;0.00;81.96;98751.55;2200724;80;21153;-84
2021/03/05 06:36:04;;;;;;;6.70;5.80;;;;;;;0.03;81.92;98757.75;2186438;80;21363;-85
2021/03/05 06:39:09;;;;;;;8.95;6.37;;;;;;;0.06;81.79;98757.52;2179712;80;21327;-85
2021/03/05 06:42:10;;;;;;;8.13;4.85;;;;;;;0.11;82.05;98767.50;2193997;80;21307;-81
2021/03/05 06:45:12;;;;;;;5.90;4.78;;;;;;;0.12;81.76;98772.53;2192180;80;21180;-93
2021/03/05 06:48:13;;;;;;;9.80;4.97;;;;;;;0.11;81.91;98770.89;2201766;80;21360;-88
2021/03/05 06:51:16;;;;;;;7.62;6.10;;;;;;;0.09;81.93;98779.64;2189218;80;21298;-88
2021/03/05 06:54:17;;;;;;;7.58;5.83;;;;;;;0.10;81.98;98786.46;2191505;80;21193;-88
2021/03/05 06:57:19;;;;;;;8.78;6.10;;;;;;;0.10;81.94;98782.59;2189634;80;21626;-86
2021/03/05 07:00:20;;;;;;;8.70;5.78;;;;;;;0.11;81.97;98792.78;2200662;80;21748;-90
2021/03/05 07:03:22;;;;;;;24.35;11.05;;;;;;;0.17;81.67;98791.49;2181840;80;21296;-88
2021/03/05 07:06:24;;;;;;;33.33;15.93;;;;;;;0.22;81.71;98799.72;2194865;80;21157;-89
2021/03/05 07:09:27;;;;;;;27.37;10.60;;;;;;;0.22;81.68;98801.00;2195915;80;21315;-88
2021/03/05 07:12:29;;;;;;;48.80;21.55;;;;;;;0.22;81.41;98804.87;2200437;80;21324;-88
2021/03/05 07:15:31;;;;;;;20.43;9.25;;;;;;;0.25;81.38;98805.92;2199830;80;21626;-89
2021/03/05 07:18:33;;;;;;;14.58;6.58;;;;;;;0.29;81.11;98808.64;2189165;80;21343;-88
2021/03/05 07:21:35;;;;;;;14.50;9.28;;;;;;;0.30;81.05;98810.28;2170839;80;21307;-89
2021/03/05 07:24:38;;;;;;;12.73;8.08;;;;;;;0.26;81.12;98811.42;2175483;80;21170;-88
2021/03/05 07:27:39;;;;;;;12.50;7.87;;;;;;;0.27;80.85;98811.34;2197128;80;21332;-87
2021/03/05 07:30:41;;;;;;;11.63;6.62;;;;;;;0.25;80.84;98812.36;2198313;80;21322;-88
2021/03/05 07:33:43;;;;;;;11.30;6.83;;;;;;;0.27;80.94;98816.48;2193374;80;21347;-88
2021/03/05 07:36:44;;;;;;;12.58;7.90;;;;;;;0.33;80.59;98821.64;2189612;80;21163;-87
2021/03/05 07:39:46;;;;;;;12.23;7.97;;;;;;;0.30;80.63;98833.93;2172749;80;21156;-87
2021/03/05 07:42:48;;;;;;;14.33;8.83;;;;;;;0.35;80.40;98836.98;2181267;80;21220;-88
2021/03/05 07:45:50;;;;;;;15.63;9.90;;;;;;;0.41;80.20;98852.00;2195920;81;21287;-85
2021/03/05 07:48:51;;;;;;;14.87;8.68;;;;;;;0.45;80.00;98861.12;2201309;80;21326;-84
2021/03/05 07:51:52;;;;;;;13.40;7.35;;;;;;;0.48;79.27;98866.08;2186193;80;21287;-85
2021/03/05 07:54:54;;;;;;;14.18;7.45;;;;;;;0.62;79.38;98867.63;2193834;80;21315;-86
2021/03/05 07:57:56;;;;;;;18.00;8.13;;;;;;;0.70;78.81;98870.47;2192854;80;21153;-86
2021/03/05 08:00:58;;;;;;;14.05;8.28;;;;;;;0.84;79.01;98871.09;2194043;80;21164;-85
2021/03/05 08:04:00;;;;;;;10.28;7.33;;;;;;;0.98;78.84;98878.25;2183188;80;21323;-86
2021/03/05 08:07:01;;;;;;;14.73;9.13;;;;;;;1.14;78.00;98873.13;2191773;80;21323;-85
2021/03/05 08:10:03;;;;;;;8.80;6.65;;;;;;;1.25;78.28;98874.06;2195188;80;21609;-86
2021/03/05 08:13:04;;;;;;;14.50;9.28;;;;;;;1.33;77.65;98874.30;2188965;80;21696;-86
2021/03/05 08:16:06;;;;;;;16.20;8.00;;;;;;;1.39;77.45;98879.01;2198881;80;21358;-88
2021/03/05 08:19:08;;;;;;;10.85;7.62;;;;;;;1.43;77.66;98882.98;2177626;80;21742;-88
2021/03/05 08:22:09;;;;;;;15.32;9.03;;;;;;;1.45;77.48;98887.55;2176607;80;21155;-86
2021/03/05 08:25:11;;;;;;;15.45;9.68;;;;;;;1.49;77.31;98882.99;2217748;79;21199;-88
2021/03/05 08:28:13;;;;;;;14.28;9.28;;;;;;;1.56;77.22;98889.33;2255430;78;21650;-83
2021/03/05 08:31:14;;;;;;;16.15;8.78;;;;;;;1.61;76.81;98894.94;2255823;78;21306;-90
2021/03/05 08:34:16;;;;;;;20.97;11.22;;;;;;;1.68;76.54;98897.41;2254455;78;21143;-87
2021/03/05 08:37:21;;;;;;;14.75;8.53;;;;;;;1.60;75.49;98905.73;2257138;78;21291;-87
2021/03/05 08:40:25;;;;;;;11.45;7.87;;;;;;;1.59;76.15;98902.81;2253092;78;21273;-88
2021/03/05 08:43:27;;;;;;;13.08;9.78;;;;;;;1.52;75.76;98902.92;2252088;78;21293;-87
2021/03/05 08:46:29;;;;;;;16.07;11.60;;;;;;;1.56;76.33;98912.09;2261778;78;21194;-87
2021/03/05 08:49:31;;;;;;;17.48;12.28;;;;;;;1.55;76.04;98907.84;2249895;78;21198;-81
2021/03/05 08:52:32;;;;;;;32.25;17.30;;;;;;;1.51;75.72;98919.81;2200880;80;21373;-89
2021/03/05 08:55:34;;;;;;;23.50;16.00;;;;;;;1.54;75.72;98921.69;2197723;79;21134;-85
2021/03/05 08:58:38;;;;;;;22.82;15.10;;;;;;;1.62;75.51;98919.34;2209544;80;21574;-87
2021/03/05 09:01:39;;;;;;;16.30;12.50;;;;;;;1.69;75.27;98926.97;2222979;79;21310;-88
2021/03/05 09:04:41;;;;;;;17.52;11.35;;;;;;;1.76;75.11;98929.09;2227151;79;21793;-86
2021/03/05 09:07:43;;;;;;;16.00;10.58;;;;;;;1.88;74.94;98922.97;2214520;79;21309;-83
2021/03/05 09:10:44;;;;;;;21.40;13.38;;;;;;;1.95;74.50;98934.47;2210908;79;21159;-89
2021/03/05 09:13:46;;;;;;;23.47;14.40;;;;;;;1.94;74.49;98933.64;2218929;78;21707;-89
2021/03/05 09:16:48;;;;;;;21.07;13.72;;;;;;;1.91;75.05;98945.95;2206002;78;21333;-84
2021/03/05 09:19:49;;;;;;;16.70;10.43;;;;;;;1.76;75.09;98947.98;2207030;78;21623;-87
2021/03/05 09:22:51;;;;;;;15.38;10.00;;;;;;;1.55;75.07;98952.19;2223877;79;21312;-87
2021/03/05 09:25:52;;;;;;;14.90;11.08;;;;;;;1.34;74.74;98949.00;2211524;79;21397;-85
2021/03/05 09:28:56;;;;;;;16.97;13.18;;;;;;;1.25;75.31;98960.02;2197924;79;21273;-86
2021/03/05 09:31:57;;;;;;;21.95;14.38;;;;;;;1.25;75.98;98955.33;2203077;79;21219;-85
2021/03/05 09:34:59;;;;;;;23.55;14.05;;;;;;;1.36;76.36;98961.78;2204839;79;21357;-86
2021/03/05 09:38:01;;;;;;;20.10;12.63;;;;;;;1.44;75.70;98963.33;2193596;79;22366;-86
2021/03/05 09:41:02;;;;;;;17.55;11.53;;;;;;;1.55;74.90;98966.38;2209485;79;21254;-83
2021/03/05 09:44:04;;;;;;;20.50;12.28;;;;;;;1.62;74.06;98962.41;2216610;79;21271;-84
2021/03/05 09:47:05;;;;;;;15.25;11.33;;;;;;;1.61;74.30;98972.37;2224048;79;21317;-83
2021/03/05 09:50:07;;;;;;;16.25;11.00;;;;;;;1.61;74.54;98964.63;2227576;79;21329;-83
2021/03/05 09:53:09;;;;;;;11.97;9.53;;;;;;;1.61;74.65;98974.48;2216938;79;21355;-83
2021/03/05 09:56:10;;;;;;;12.28;9.53;;;;;;;1.71;73.61;98977.19;2226413;79;21138;-83
2021/03/05 09:59:12;;;;;;;15.48;9.43;;;;;;;1.82;74.13;98984.11;2227614;79;21265;-84
2021/03/05 10:02:14;;;;;;;13.22;8.83;;;;;;;1.85;74.33;98991.17;2204331;79;21337;-84
2021/03/05 10:05:16;;;;;;;11.78;8.70;;;;;;;1.82;74.07;98998.31;2211176;79;21140;-83
2021/03/05 10:08:18;;;;;;;16.37;10.48;;;;;;;1.72;73.68;98994.32;2210820;78;21299;-85
2021/03/05 10:11:19;;;;;;;9.53;7.65;;;;;;;1.51;73.75;99014.02;2206982;79;21262;-84
2021/03/05 10:14:21;;;;;;;12.47;7.87;;;;;;;1.28;74.22;99006.68;2210485;79;21308;-86
2021/03/05 10:17:23;;;;;;;13.75;7.83;;;;;;;1.10;74.64;99021.31;2217020;79;21309;-83
2021/03/05 10:20:25;;;;;;;11.08;7.75;;;;;;;0.99;74.74;99016.56;2227902;79;21136;-86
2021/03/05 10:23:26;;;;;;;15.60;10.00;;;;;;;1.06;74.29;99010.03;2220316;79;21318;-81
2021/03/05 10:26:28;;;;;;;14.53;8.78;;;;;;;1.20;74.18;99024.52;2230190;79;21265;-84
2021/03/05 10:29:30;;;;;;;10.10;7.25;;;;;;;1.30;74.22;99020.31;2254005;78;21124;-80
2021/03/05 10:32:32;;;;;;;12.30;9.18;;;;;;;1.50;74.05;99029.97;2266850;78;21150;-80
2021/03/05 10:35:34;;;;;;;17.98;10.63;;;;;;;1.65;73.96;99022.38;2255537;79;21697;-81
2021/03/05 10:38:36;;;;;;;13.10;8.30;;;;;;;1.80;73.30;99029.42;2267961;78;21303;-81
2021/03/05 10:41:37;;;;;;;12.70;7.83;;;;;;;1.95;72.05;99037.30;2254587;78;21301;-81
2021/03/05 10:44:39;;;;;;;12.73;8.58;;;;;;;2.12;70.91;99028.73;2276847;78;21153;-81
2021/03/05 10:47:40;;;;;;;11.00;6.30;;;;;;;2.36;69.56;99044.08;2280006;78;21156;-82
2021/03/05 10:50:42;;;;;;;7.10;5.50;;;;;;;2.41;68.01;99045.84;2247854;78;21278;-81
2021/03/05 10:53:44;;;;;;;12.45;7.70;;;;;;;2.46;67.32;99039.83;2259049;78;21739;-82
2021/03/05 10:56:45;;;;;;;10.28;5.58;;;;;;;2.53;69.14;99037.12;2269114;78;21307;-81
2021/03/05 10:59:47;;;;;;;9.00;6.40;;;;;;;2.58;67.48;99037.59;2265842;78;21315;-82
2021/03/05 11:02:49;;;;;;;9.90;5.85;;;;;;;2.68;66.40;99049.33;2275605;78;21303;-82
2021/03/05 11:05:51;;;;;;;10.45;5.95;;;;;;;2.74;66.58;99048.37;2260331;78;21307;-81
2021/03/05 11:08:53;;;;;;;11.00;6.72;;;;;;;2.66;65.85;99053.33;2269505;78;21312;-81
2021/03/05 11:11:55;;;;;;;8.03;5.65;;;;;;;2.63;65.29;99054.02;2263897;78;21137;-82
2021/03/05 11:14:57;;;;;;;6.62;5.25;;;;;;;2.66;64.66;99052.52;2269519;78;21137;-82
2021/03/05 11:17:58;;;;;;;10.95;6.40;;;;;;;2.66;64.54;99058.98;2262318;78;21283;-82
2021/03/05 11:21:00;;;;;;;7.95;5.15;;;;;;;2.60;64.06;99062.03;2272113;78;21628;-82
2021/03/05 11:24:01;;;;;;;11.22;6.42;;;;;;;2.49;65.08;99057.70;2269044;78;21743;-83
2021/03/05 11:27:04;;;;;;;8.53;5.42;;;;;;;2.46;65.60;99064.39;2262746;78;21161;-81
2021/03/05 11:30:05;;;;;;;9.85;6.65;;;;;;;2.56;66.13;99062.28;2274401;78;21747;-82
2021/03/05 11:33:07;;;;;;;8.50;5.28;;;;;;;2.66;63.73;99068.84;2252526;78;21506;-82
2021/03/05 11:36:09;;;;;;;11.28;6.22;;;;;;;2.65;64.89;99060.74;2269487;78;21311;-81
2021/03/05 11:39:10;;;;;;;9.18;6.40;;;;;;;2.55;64.80;99067.08;2265240;78;21129;-81
2021/03/05 11:42:12;;;;;;;14.10;7.37;;;;;;;2.51;65.39;99081.20;2272231;78;21188;-81
2021/03/05 11:45:14;;;;;;;9.85;6.60;;;;;;;2.56;63.22;99080.38;2268898;78;21731;-81
2021/03/05 11:48:17;;;;;;;13.95;7.60;;;;;;;2.56;65.24;99066.60;2274832;78;21165;-82
2021/03/05 11:51:20;;;;;;;12.25;7.00;;;;;;;2.47;63.46;99065.59;2271470;78;21601;-80
2021/03/05 11:54:22;;;;;;;9.40;5.72;;;;;;;2.34;64.29;99064.88;2266076;78;21280;-82
2021/03/05 11:57:27;;;;;;;9.08;6.22;;;;;;;2.26;65.04;99069.81;2266820;78;21283;-82
2021/03/05 12:00:29;;;;;;;8.48;4.70;;;;;;;2.21;65.49;99075.83;2260128;78;21283;-80
2021/03/05 12:03:30;;;;;;;8.45;5.72;;;;;;;2.15;64.99;99077.58;2276555;78;21558;-81
2021/03/05 12:06:32;;;;;;;10.08;5.45;;;;;;;2.18;64.85;99088.48;2279754;78;21294;-82
2021/03/05 12:09:34;;;;;;;9.38;6.72;;;;;;;2.21;64.17;99078.41;2277550;78;21284;-83
2021/03/05 12:12:36;;;;;;;11.15;5.80;;;;;;;2.22;63.73;99113.64;2265916;78;21213;-83
2021/03/05 12:15:38;;;;;;;6.45;4.83;;;;;;;2.20;63.40;99092.27;2268258;77;21172;-84
2021/03/05 12:18:40;;;;;;;7.62;5.67;;;;;;;2.20;63.05;99100.84;2255188;77;21344;-83
2021/03/05 12:21:41;;;;;;;6.17;4.22;;;;;;;2.13;62.10;99090.61;2248049;78;21206;-83
2021/03/05 12:24:43;;;;;;;9.80;6.17;;;;;;;2.12;62.31;99088.97;2264703;77;21305;-82
2021/03/05 12:27:45;;;;;;;8.30;6.75;;;;;;;2.17;63.27;99097.18;2252915;77;21175;-81
2021/03/05 12:30:46;;;;;;;9.70;5.62;;;;;;;2.13;62.24;99100.13;2206125;79;21265;-81
2021/03/05 12:33:49;;;;;;;8.43;5.12;;;;;;;2.05;63.54;99108.92;2220249;79;21701;-82
2021/03/05 12:36:51;;;;;;;8.53;5.20;;;;;;;1.99;61.64;99108.91;2254602;78;21279;-81
2021/03/05 12:39:53;;;;;;;7.15;5.17;;;;;;;2.01;62.93;99108.31;2256697;77;21288;-81
2021/03/05 12:42:56;;;;;;;6.97;4.37;;;;;;;2.13;63.16;99116.45;2282524;77;21723;-81
2021/03/05 12:45:58;;;;;;;7.28;3.77;;;;;;;2.30;63.30;99116.94;2250744;77;21118;-81
2021/03/05 12:49:02;;;;;;;3.80;3.42;;;;;;;2.39;59.41;99122.22;2269470;77;21149;-82
2021/03/05 12:52:04;;;;;;;3.95;3.05;;;;;;;2.49;60.82;99115.40;2267286;77;21759;-82
2021/03/05 12:55:06;;;;;;;4.55;3.12;;;;;;;2.48;59.61;99127.16;2283640;77;21623;-82
2021/03/05 12:58:07;;;;;;;3.75;2.98;;;;;;;2.35;58.87;99127.25;2273531;77;21335;-82
2021/03/05 13:01:09;;;;;;;10.68;4.90;;;;;;;2.22;58.79;99132.55;2262578;77;21626;-83
2021/03/05 13:04:10;;;;;;;15.68;7.55;;;;;;;2.19;58.29;99147.44;2272770;77;21285;-83
2021/03/05 13:07:12;;;;;;;6.55;4.05;;;;;;;2.19;58.20;99146.97;2258919;77;21295;-84
2021/03/05 13:10:15;;;;;;;10.88;5.53;;;;;;;2.22;56.16;99147.23;2246148;77;21860;-83
2021/03/05 13:13:17;;;;;;;8.15;4.47;;;;;;;2.24;57.83;99149.22;2255407;77;21137;-86
2021/03/05 13:16:19;;;;;;;16.48;6.72;;;;;;;2.28;57.20;99154.49;2267459;77;21264;-84
2021/03/05 13:19:20;;;;;;;15.10;7.85;;;;;;;2.28;58.03;99153.20;2262822;77;21290;-82
2021/03/05 13:22:22;;;;;;;12.88;6.80;;;;;;;2.30;58.15;99155.23;2238141;77;21267;-82
2021/03/05 13:25:31;;;;;;;7.75;4.20;;;;;;;2.25;57.87;99170.23;2281455;77;21341;-82
2021/03/05 13:28:27;;;;;;;7.40;4.22;;;;;;;2.17;57.46;99174.69;2252549;77;21135;-82
2021/03/05 13:31:28;;;;;;;10.60;5.55;;;;;;;2.10;58.02;99172.67;2249036;77;21149;-81
2021/03/05 13:34:30;;;;;;;6.35;4.92;;;;;;;2.09;57.25;99179.60;2248672;77;21202;-81
2021/03/05 13:37:32;;;;;;;5.72;3.05;;;;;;;2.09;57.67;99191.70;2250090;77;21758;-81
2021/03/05 13:40:34;;;;;;;6.35;4.03;;;;;;;2.09;56.74;99179.60;2239490;77;21295;-80
2021/03/05 13:43:36;;;;;;;8.35;3.98;;;;;;;2.11;57.01;99182.09;2265206;77;21792;-81
2021/03/05 13:46:37;;;;;;;5.58;3.20;;;;;;;2.21;57.57;99186.92;2256328;77;21311;-81
2021/03/05 13:49:39;;;;;;;7.70;4.17;;;;;;;2.28;57.34;99186.80;2256495;77;21305;-82
2021/03/05 13:52:40;;;;;;;8.70;3.67;;;;;;;2.30;57.32;99190.11;2257769;77;21255;-81
2021/03/05 13:55:42;;;;;;;4.90;2.70;;;;;;;2.29;55.61;99188.47;2255029;77;21263;-82
2021/03/05 13:58:44;;;;;;;8.65;4.22;;;;;;;2.19;54.54;99193.47;2261182;77;21722;-82
2021/03/05 14:01:46;;;;;;;15.08;6.62;;;;;;;2.07;54.75;99198.74;2277228;77;21173;-82
2021/03/05 14:04:47;;;;;;;11.90;6.03;;;;;;;1.91;54.12;99208.91;2277630;76;21325;-82
2021/03/05 14:07:49;;;;;;;4.33;2.72;;;;;;;1.78;55.50;99217.67;2257137;77;21201;-82
2021/03/05 14:10:51;;;;;;;5.62;3.33;;;;;;;1.66;55.89;99225.85;2261230;78;21329;-84
2021/03/05 14:13:54;;;;;;;2.95;2.45;;;;;;;1.58;56.71;99221.23;2205562;79;21270;-82